Terminal Aerodrome Forecast
Issued by NWS San Angelo, TX

Current Version | Previous Version | Text Only | Print | Product List | Glossary Off
Versions: 1 2 3 4 5 6 7 8 9 10 11 12 13 14

417
FTUS44 KSJT 261735
TAFABI
TAF
KABI 261735Z 2618/2718 19017G25KT P6SM SCT060
     FM262300 17016G23KT P6SM VCTS SCT050CB
      TEMPO 2700/2704 4SM -TSRA BKN030CB
     FM270600 16014KT P6SM VCSH OVC050
     FM271100 15011KT P6SM SCT020=

USA.gov is the U.S. government's official web portal to all federal, state and local government web resources and services.